Time;durP1;ratioP1;P1;durP2;ratioP2;P2;SDS_P1;SDS_P2;PMS_P1;PMS_P2;Temp;Humidity;BMP_temperature;BMP_pressure;BME280_temperature;BME280_humidity;BME280_pressure;Samples;Min_cycle;Max_cycle;Signal;HPM_P1;HPM_P2
2021/08/17 00:00:43;;;;;;;14.65;4.72;;;;;;;12.44;80.64;101368.38;4984647;28;20108;-68
2021/08/17 00:03:10;;;;;;;10.73;4.18;;;;;;;12.46;80.69;101372.72;4985052;28;20476;-68
2021/08/17 00:05:36;;;;;;;13.70;4.10;;;;;;;12.43;80.98;101376.25;4987995;28;20054;-68
2021/08/17 00:08:04;;;;;;;20.50;4.50;;;;;;;12.41;81.13;101367.56;4987107;28;20050;-67
2021/08/17 00:10:32;;;;;;;10.93;4.00;;;;;;;12.42;81.41;101375.41;4982126;28;20057;-68
2021/08/17 00:12:58;;;;;;;15.50;4.55;;;;;;;12.30;81.66;101375.59;4982975;28;20046;-67
2021/08/17 00:15:24;;;;;;;13.27;4.32;;;;;;;12.37;81.75;101376.38;4986376;28;20054;-67
2021/08/17 00:17:51;;;;;;;13.57;4.25;;;;;;;12.21;82.52;101376.59;4983595;28;20492;-66
2021/08/17 00:20:17;;;;;;;15.40;5.03;;;;;;;12.22;82.19;101378.31;4988017;28;20074;-67
2021/08/17 00:22:44;;;;;;;14.05;4.32;;;;;;;12.20;82.81;101376.63;4984052;28;20039;-67
2021/08/17 00:25:11;;;;;;;13.90;4.10;;;;;;;12.19;82.61;101377.50;4980940;28;20512;-67
2021/08/17 00:27:39;;;;;;;15.52;4.00;;;;;;;12.15;82.92;101371.47;4981737;28;20412;-67
2021/08/17 00:30:07;;;;;;;13.55;4.43;;;;;;;12.15;82.99;101366.28;4986372;28;20120;-68
2021/08/17 00:32:34;;;;;;;15.82;4.68;;;;;;;12.11;83.06;101373.28;4983670;28;20055;-67
2021/08/17 00:35:01;;;;;;;16.45;5.07;;;;;;;12.07;83.60;101368.13;4983488;28;20050;-67
2021/08/17 00:37:28;;;;;;;13.93;4.45;;;;;;;12.10;83.34;101373.28;4979775;28;20080;-67
2021/08/17 00:39:55;;;;;;;16.80;4.85;;;;;;;12.08;83.54;101367.22;4984554;28;20050;-67
2021/08/17 00:42:22;;;;;;;14.20;4.30;;;;;;;12.11;83.84;101375.00;4989627;28;20057;-68
2021/08/17 00:44:50;;;;;;;11.43;4.32;;;;;;;12.06;84.02;101371.63;4985876;28;20054;-67
2021/08/17 00:47:17;;;;;;;14.48;4.65;;;;;;;12.02;84.06;101368.22;4978908;28;20046;-68
2021/08/17 00:49:44;;;;;;;12.48;4.88;;;;;;;12.01;84.34;101376.91;4989637;28;20073;-67
2021/08/17 00:52:11;;;;;;;14.77;5.45;;;;;;;11.98;84.62;101379.56;4981917;28;21106;-68
2021/08/17 00:54:38;;;;;;;14.52;4.68;;;;;;;11.97;84.45;101363.06;4981423;28;20050;-68
2021/08/17 00:57:05;;;;;;;13.52;5.53;;;;;;;11.93;85.26;101370.88;4982590;28;20428;-67
2021/08/17 00:59:32;;;;;;;17.33;5.15;;;;;;;11.92;84.90;101369.19;4988156;28;20050;-68
2021/08/17 01:02:01;;;;;;;20.45;6.20;;;;;;;11.95;85.26;101361.31;4978253;28;20504;-68
2021/08/17 01:04:28;;;;;;;15.70;5.78;;;;;;;11.91;85.62;101363.09;4985647;28;20419;-68
2021/08/17 01:06:54;;;;;;;17.30;5.15;;;;;;;11.95;85.73;101369.13;4982019;28;20108;-68
2021/08/17 01:09:21;;;;;;;20.30;6.32;;;;;;;11.93;85.41;101370.88;4988447;28;20488;-68
2021/08/17 01:11:49;;;;;;;17.02;6.10;;;;;;;11.98;85.78;101362.16;4981452;28;20109;-67
2021/08/17 01:14:17;;;;;;;17.17;6.15;;;;;;;11.95;86.14;101361.31;4982901;28;20053;-67
2021/08/17 01:16:44;;;;;;;20.23;7.57;;;;;;;11.97;86.23;101368.28;4983576;28;20047;-67
2021/08/17 01:19:13;;;;;;;16.88;6.75;;;;;;;11.92;86.82;101371.81;4985121;28;20567;-67
2021/08/17 01:21:40;;;;;;;21.73;7.70;;;;;;;11.92;86.86;101366.59;4985168;28;20492;-67
2021/08/17 01:24:06;;;;;;;22.67;8.95;;;;;;;11.89;87.29;101359.66;4987656;28;20393;-67
2021/08/17 01:26:34;;;;;;;22.02;9.05;;;;;;;11.91;87.21;101370.06;4985803;28;20054;-68
2021/08/17 01:29:01;;;;;;;21.65;9.23;;;;;;;11.88;87.46;101363.13;4982148;28;20054;-67
2021/08/17 01:31:27;;;;;;;26.23;9.57;;;;;;;11.86;87.80;101367.53;4988939;28;20050;-67
2021/08/17 01:33:54;;;;;;;28.25;10.68;;;;;;;11.88;88.43;101362.28;4986478;28;20051;-68
2021/08/17 01:36:20;;;;;;;30.85;9.75;;;;;;;11.88;88.19;101373.56;4984305;28;20055;-69
2021/08/17 01:38:48;;;;;;;27.10;11.07;;;;;;;11.86;88.34;101370.16;4980579;28;20046;-67
2021/08/17 01:41:14;;;;;;;24.30;11.65;;;;;;;11.86;88.50;101366.66;4989099;28;20576;-67
2021/08/17 01:43:43;;;;;;;26.70;10.73;;;;;;;11.86;88.84;101377.09;4987529;28;20058;-67
2021/08/17 01:46:12;;;;;;;36.03;13.32;;;;;;;11.87;88.67;101382.28;4988684;28;20078;-67
2021/08/17 01:48:38;;;;;;;31.15;12.43;;;;;;;11.91;89.17;101380.50;4988179;28;20415;-68
2021/08/17 01:51:06;;;;;;;35.17;14.40;;;;;;;11.88;89.00;101388.34;4983745;28;20050;-67
2021/08/17 01:53:33;;;;;;;32.47;13.73;;;;;;;11.83;89.50;101378.84;4984031;28;20042;-68
2021/08/17 01:56:06;;;;;;;32.85;13.90;;;;;;;11.81;90.01;101378.03;4987209;28;20061;-67
2021/08/17 01:58:33;;;;;;;38.53;14.93;;;;;;;11.80;90.43;101384.13;4988031;28;20069;-67
2021/08/17 02:01:00;;;;;;;36.78;15.57;;;;;;;11.87;90.04;101376.22;4983407;28;20272;-67
2021/08/17 02:03:27;;;;;;;41.63;16.02;;;;;;;11.87;90.31;101376.22;4990659;28;20062;-67
2021/08/17 02:05:53;;;;;;;34.53;14.73;;;;;;;11.82;90.55;101377.16;4986999;28;20054;-67
2021/08/17 02:08:20;;;;;;;35.38;15.90;;;;;;;11.89;90.78;101380.50;4978123;28;20050;-68
2021/08/17 02:10:46;;;;;;;38.58;17.25;;;;;;;11.88;90.48;101375.31;4985809;28;20047;-67
2021/08/17 02:13:16;;;;;;;43.65;17.98;;;;;;;11.81;90.62;101377.16;4988586;28;20054;-68
2021/08/17 02:15:43;;;;;;;40.35;18.13;;;;;;;11.81;90.66;101382.38;4990117;28;20061;-67
2021/08/17 02:18:10;;;;;;;47.22;18.80;;;;;;;11.82;90.84;101382.38;4985933;28;20050;-68
2021/08/17 02:20:37;;;;;;;41.70;18.92;;;;;;;11.80;91.18;101381.50;4984660;28;20436;-68
2021/08/17 02:23:04;;;;;;;48.63;20.42;;;;;;;11.85;91.44;101385.78;4986085;28;20526;-67
2021/08/17 02:25:30;;;;;;;46.30;19.27;;;;;;;11.78;91.65;101387.63;4989681;28;20469;-68
2021/08/17 02:27:57;;;;;;;42.67;18.95;;;;;;;11.78;91.78;101382.41;4988066;28;20054;-68
2021/08/17 02:30:23;;;;;;;49.78;20.80;;;;;;;11.82;91.54;101387.56;4990541;28;20062;-67
2021/08/17 02:32:49;;;;;;;46.72;21.73;;;;;;;11.85;91.38;101391.00;4990786;28;20116;-67
2021/08/17 02:35:17;;;;;;;42.50;19.42;;;;;;;11.86;91.64;101391.00;4984476;28;20098;-68
2021/08/17 02:37:44;;;;;;;44.78;20.33;;;;;;;11.88;91.47;101384.00;4979352;28;20092;-68
2021/08/17 02:40:11;;;;;;;45.03;20.70;;;;;;;11.86;91.76;101384.91;4989414;28;20038;-69
2021/08/17 02:42:38;;;;;;;50.83;20.92;;;;;;;11.89;91.70;101385.72;4992073;28;20054;-67
2021/08/17 02:45:06;;;;;;;48.85;19.80;;;;;;;11.89;91.79;101385.72;4989026;28;20412;-67
2021/08/17 02:47:33;;;;;;;52.22;22.75;;;;;;;11.88;91.81;101386.59;4981828;28;20050;-67
2021/08/17 02:50:00;;;;;;;50.33;22.75;;;;;;;11.93;91.97;101383.94;4984718;28;20057;-67
2021/08/17 02:52:28;;;;;;;55.80;23.77;;;;;;;11.94;92.06;101385.66;4987166;28;20405;-67
2021/08/17 02:54:55;;;;;;;59.03;23.33;;;;;;;11.97;91.94;101388.22;4977998;28;20054;-68
2021/08/17 02:57:23;;;;;;;47.50;20.83;;;;;;;11.95;91.94;101392.59;4980785;28;20709;-68
2021/08/17 02:59:50;;;;;;;54.42;21.52;;;;;;;11.94;91.98;101393.47;4980499;28;20085;-67
2021/08/17 03:02:16;;;;;;;52.47;21.48;;;;;;;11.99;92.01;101386.50;4988909;28;20050;-67
2021/08/17 03:04:43;;;;;;;55.40;24.77;;;;;;;12.00;91.75;101385.63;4986911;28;20113;-67
2021/08/17 03:07:09;;;;;;;46.63;21.90;;;;;;;11.98;91.89;101387.38;4983800;28;20572;-67
2021/08/17 03:09:37;;;;;;;52.97;22.85;;;;;;;11.96;91.90;101387.38;4986528;28;20451;-67
2021/08/17 03:12:04;;;;;;;56.40;23.77;;;;;;;11.95;92.30;101390.00;4984130;28;20054;-68
2021/08/17 03:14:30;;;;;;;60.22;24.58;;;;;;;11.92;92.35;101384.84;4986470;28;20057;-68
2021/08/17 03:16:57;;;;;;;51.67;24.10;;;;;;;11.95;92.49;101392.59;4985378;28;20500;-68
2021/08/17 03:19:23;;;;;;;60.83;23.30;;;;;;;11.93;92.50;101386.53;4986282;28;20504;-68
2021/08/17 03:21:50;;;;;;;60.28;23.33;;;;;;;11.96;92.59;101386.50;4985569;28;20054;-68
2021/08/17 03:24:16;;;;;;;48.30;21.38;;;;;;;11.96;92.41;101378.69;4984574;28;20104;-68
2021/08/17 03:26:44;;;;;;;56.60;24.52;;;;;;;11.93;92.18;101389.13;4984625;28;20398;-66
2021/08/17 03:29:10;;;;;;;56.38;23.95;;;;;;;11.95;92.37;101384.78;4979809;28;20404;-68
2021/08/17 03:31:37;;;;;;;53.83;22.85;;;;;;;11.96;92.20;101379.56;4979747;28;20464;-67
2021/08/17 03:34:03;;;;;;;53.47;25.38;;;;;;;11.98;92.31;101384.78;4990475;28;20451;-68
2021/08/17 03:36:30;;;;;;;56.58;23.73;;;;;;;11.97;92.19;101375.19;4982183;28;20131;-67
2021/08/17 03:38:56;;;;;;;59.97;24.13;;;;;;;11.92;92.52;101377.00;4976584;28;20046;-67
2021/08/17 03:41:23;;;;;;;60.08;25.48;;;;;;;11.88;92.80;101373.56;4981695;28;20416;-67
2021/08/17 03:43:50;;;;;;;59.10;24.95;;;;;;;11.87;92.81;101377.09;4985141;28;20058;-67
2021/08/17 03:46:17;;;;;;;57.38;25.33;;;;;;;11.87;92.22;101373.59;4982011;28;20110;-67
2021/08/17 03:48:43;;;;;;;60.05;23.10;;;;;;;11.83;92.26;101375.41;4984751;28;20448;-68
2021/08/17 03:51:10;;;;;;;51.70;23.35;;;;;;;11.80;92.72;101380.63;4986731;28;20097;-68
2021/08/17 03:53:36;;;;;;;57.20;25.60;;;;;;;11.81;92.74;101371.94;4980739;28;20065;-67
2021/08/17 03:56:03;;;;;;;50.30;23.70;;;;;;;11.78;92.40;101377.19;4983454;28;20495;-67
2021/08/17 03:58:29;;;;;;;55.22;24.35;;;;;;;11.76;92.31;101376.38;4988039;28;20468;-67
2021/08/17 04:00:57;;;;;;;62.45;25.10;;;;;;;11.69;92.43;101380.81;4984806;28;20416;-68
2021/08/17 04:03:23;;;;;;;57.63;25.77;;;;;;;11.69;92.81;101383.41;4990066;28;20512;-67
2021/08/17 04:05:50;;;;;;;58.50;24.17;;;;;;;11.66;93.12;101376.50;4995630;28;20520;-67
2021/08/17 04:08:16;;;;;;;55.65;24.42;;;;;;;11.66;93.25;101373.00;4979930;28;20104;-68
2021/08/17 04:10:46;;;;;;;63.15;24.58;;;;;;;11.65;93.15;101371.28;4990794;28;20046;-68
2021/08/17 04:13:12;;;;;;;56.60;24.08;;;;;;;11.55;93.25;101365.34;4992153;28;20461;-67
2021/08/17 04:15:39;;;;;;;56.70;27.23;;;;;;;11.54;93.91;101373.16;4991189;28;20054;-68
2021/08/17 04:18:07;;;;;;;62.25;25.48;;;;;;;11.53;93.94;101371.47;4984010;28;20133;-68
2021/08/17 04:20:35;;;;;;;56.47;24.60;;;;;;;11.54;93.93;101371.44;4989171;28;20057;-68
2021/08/17 04:23:01;;;;;;;58.78;24.83;;;;;;;11.55;94.21;101375.78;4985307;28;20054;-68
2021/08/17 04:25:28;;;;;;;64.85;26.50;;;;;;;11.58;94.48;101387.88;4988241;28;20062;-67
2021/08/17 04:27:54;;;;;;;62.08;25.88;;;;;;;11.62;94.10;101393.03;4986183;28;20053;-68
2021/08/17 04:30:21;;;;;;;54.42;25.00;;;;;;;11.60;94.34;101386.97;5021863;22;20053;-68
2021/08/17 04:32:47;;;;;;;61.63;27.33;;;;;;;11.66;94.38;101399.06;5018951;28;20170;-68
2021/08/17 04:35:19;;;;;;;59.20;24.67;;;;;;;11.73;94.38;101399.84;5025503;28;20045;-68
2021/08/17 04:37:45;;;;;;;56.70;25.05;;;;;;;11.74;94.47;101391.16;5024659;28;20342;-67
2021/08/17 04:40:12;;;;;;;63.63;25.77;;;;;;;11.77;94.23;101396.34;5012042;28;20050;-67
2021/08/17 04:42:39;;;;;;;60.90;25.73;;;;;;;11.81;94.28;101404.09;5012369;28;20051;-65
2021/08/17 04:45:07;;;;;;;64.85;25.70;;;;;;;11.82;94.67;101398.00;5017879;28;20057;-67
2021/08/17 04:47:33;;;;;;;62.78;24.88;;;;;;;11.86;94.23;101403.16;5015628;28;20052;-68
2021/08/17 04:49:59;;;;;;;60.22;26.67;;;;;;;11.92;94.58;101405.69;5020290;28;20057;-68
2021/08/17 04:52:27;;;;;;;59.70;24.80;;;;;;;12.03;94.66;101401.19;5011977;28;20057;-68
2021/08/17 04:54:53;;;;;;;54.20;23.55;;;;;;;12.17;94.12;101410.56;5013760;28;20060;-67
2021/08/17 04:57:20;;;;;;;59.38;24.60;;;;;;;12.19;94.06;101409.66;5016868;28;20054;-67
2021/08/17 04:59:46;;;;;;;55.63;24.77;;;;;;;12.25;94.16;101403.47;5017069;28;20100;-67
2021/08/17 05:02:13;;;;;;;57.33;24.88;;;;;;;12.38;93.80;101405.03;5019155;28;20443;-68
2021/08/17 05:04:39;;;;;;;53.30;24.10;;;;;;;12.46;93.56;101414.47;5014096;28;20077;-67
2021/08/17 05:07:07;;;;;;;56.35;24.88;;;;;;;12.54;93.31;101403.03;5018950;28;20058;-68
2021/08/17 05:09:35;;;;;;;52.50;23.38;;;;;;;12.65;92.69;101400.22;5014279;28;20046;-68
2021/08/17 05:12:01;;;;;;;56.58;24.70;;;;;;;12.68;92.75;101400.19;5003135;28;20054;-68
2021/08/17 05:14:27;;;;;;;56.28;25.08;;;;;;;12.72;92.46;101400.97;5010309;28;20053;-67
2021/08/17 05:16:54;;;;;;;54.30;24.00;;;;;;;12.74;92.14;101384.41;5010980;28;20100;-67
2021/08/17 05:19:20;;;;;;;54.47;23.67;;;;;;;12.71;92.53;101394.91;5017803;28;20762;-68
2021/08/17 05:21:47;;;;;;;52.15;23.05;;;;;;;12.73;92.58;101406.16;5009476;28;20057;-68
2021/08/17 05:24:13;;;;;;;54.35;23.85;;;;;;;12.76;92.25;101413.09;5015949;28;20072;-67
2021/08/17 05:26:41;;;;;;;55.50;24.20;;;;;;;12.63;93.09;101425.47;5015659;28;20073;-67
2021/08/17 05:29:07;;;;;;;55.22;24.63;;;;;;;12.64;92.96;101435.03;5009401;28;20100;-67
2021/08/17 05:31:34;;;;;;;61.03;25.58;;;;;;;12.61;93.33;101429.88;5014807;28;20090;-68
2021/08/17 05:34:00;;;;;;;59.20;24.27;;;;;;;12.65;93.53;101421.09;5010256;28;20107;-68
2021/08/17 05:36:27;;;;;;;57.25;24.15;;;;;;;12.62;93.89;101423.78;5011380;28;20042;-67
2021/08/17 05:38:53;;;;;;;58.85;24.10;;;;;;;12.62;94.25;101428.13;5005470;28;20459;-68
2021/08/17 05:41:20;;;;;;;59.03;24.40;;;;;;;12.63;94.20;101430.69;5010177;28;20112;-68
2021/08/17 05:43:47;;;;;;;56.72;23.10;;;;;;;12.74;93.97;101422.72;5012185;28;20475;-67
2021/08/17 05:46:14;;;;;;;56.47;23.65;;;;;;;12.77;93.88;101430.50;5006987;28;22062;-68
2021/08/17 05:48:40;;;;;;;53.47;23.50;;;;;;;12.86;93.88;101427.72;5013716;28;20462;-67
2021/08/17 05:51:07;;;;;;;55.00;22.98;;;;;;;12.86;93.93;101427.72;5010576;28;20042;-67
2021/08/17 05:53:34;;;;;;;56.33;24.60;;;;;;;12.95;93.69;101420.59;5015998;28;20050;-69
2021/08/17 05:56:00;;;;;;;61.33;23.25;;;;;;;13.06;93.40;101414.28;5014077;28;20049;-69
2021/08/17 05:58:26;;;;;;;58.08;24.45;;;;;;;13.11;92.86;101419.44;5012654;28;20065;-67
2021/08/17 06:00:54;;;;;;;55.00;23.45;;;;;;;13.20;93.31;101421.00;5012817;28;20050;-67
2021/08/17 06:03:21;;;;;;;54.03;24.05;;;;;;;13.26;93.03;101418.28;5012942;28;20418;-68
2021/08/17 06:05:47;;;;;;;52.08;22.90;;;;;;;13.30;92.67;101422.56;5015865;28;20054;-68
2021/08/17 06:08:13;;;;;;;56.13;25.27;;;;;;;13.41;92.32;101424.13;5013413;28;20095;-68
2021/08/17 06:10:40;;;;;;;51.80;23.25;;;;;;;13.47;91.68;101426.59;5011893;28;20392;-67
2021/08/17 06:13:06;;;;;;;56.70;24.45;;;;;;;13.44;92.08;101424.03;5019791;28;20058;-67
2021/08/17 06:15:33;;;;;;;51.33;22.08;;;;;;;13.54;92.30;101428.19;5012876;28;20054;-67
2021/08/17 06:18:04;;;;;;;60.95;25.48;;;;;;;13.73;91.82;101431.28;5015902;28;20057;-67
2021/08/17 06:20:31;;;;;;;51.67;23.67;;;;;;;13.88;90.62;101432.72;5011935;28;20042;-68
2021/08/17 06:22:58;;;;;;;56.97;24.30;;;;;;;13.90;90.42;101428.31;5020403;28;20057;-66
2021/08/17 06:25:24;;;;;;;54.60;23.80;;;;;;;13.90;89.78;101420.47;5017622;28;20104;-67
2021/08/17 06:27:51;;;;;;;51.40;22.98;;;;;;;13.87;90.43;101420.53;5013324;28;20057;-67
2021/08/17 06:30:17;;;;;;;46.35;22.23;;;;;;;13.89;90.40;101426.59;5015170;28;20049;-66
2021/08/17 06:32:43;;;;;;;51.25;22.23;;;;;;;13.91;90.82;101422.19;5020521;28;20121;-66
2021/08/17 06:35:12;;;;;;;51.80;21.90;;;;;;;14.01;90.40;101433.31;5016506;28;20042;-65
2021/08/17 06:37:38;;;;;;;49.58;22.05;;;;;;;14.03;90.07;101420.19;5013410;28;20049;-66
2021/08/17 06:40:05;;;;;;;54.30;22.90;;;;;;;14.06;90.22;101427.97;5016683;28;20049;-67
2021/08/17 06:42:32;;;;;;;50.65;21.13;;;;;;;14.02;90.30;101418.50;5007452;28;20053;-65
2021/08/17 06:44:58;;;;;;;49.42;23.13;;;;;;;13.96;90.85;101417.72;5011331;28;20046;-68
2021/08/17 06:47:25;;;;;;;52.42;24.75;;;;;;;13.98;90.45;101428.13;5009194;28;20049;-66
2021/08/17 06:49:51;;;;;;;54.63;22.60;;;;;;;14.06;90.53;101425.34;5016003;28;20053;-66
2021/08/17 06:52:19;;;;;;;51.92;22.58;;;;;;;14.18;90.27;101435.53;5015180;28;20064;-66
2021/08/17 06:54:45;;;;;;;48.97;23.50;;;;;;;14.18;90.31;101442.50;5018630;28;20704;-66
2021/08/17 06:57:12;;;;;;;46.38;21.85;;;;;;;14.35;90.27;101439.50;5020490;28;20051;-66
2021/08/17 06:59:38;;;;;;;44.22;21.15;;;;;;;14.59;89.60;101428.47;5005086;28;20049;-67
2021/08/17 07:02:05;;;;;;;43.40;20.85;;;;;;;14.89;88.27;101431.22;5006296;28;20112;-66
2021/08/17 07:04:31;;;;;;;44.70;21.52;;;;;;;15.04;87.14;101429.97;5019210;28;20041;-66
2021/08/17 07:06:58;;;;;;;48.60;20.42;;;;;;;15.11;87.10;101422.81;5016912;28;20053;-66
2021/08/17 07:09:25;;;;;;;46.80;20.42;;;;;;;15.26;86.71;101415.41;5019331;28;20064;-66
2021/08/17 07:11:52;;;;;;;47.42;21.45;;;;;;;15.28;85.51;101416.22;5006590;28;20050;-67
2021/08/17 07:14:18;;;;;;;47.53;20.90;;;;;;;15.29;85.47;101420.56;5007326;28;20046;-64
2021/08/17 07:16:45;;;;;;;46.00;19.63;;;;;;;15.34;85.53;101419.53;5004869;28;20107;-66
2021/08/17 07:19:11;;;;;;;44.65;21.90;;;;;;;15.40;84.92;101423.75;5012977;28;20057;-69
2021/08/17 07:21:38;;;;;;;48.63;20.95;;;;;;;15.36;85.09;101417.72;5001220;28;20041;-67
2021/08/17 07:24:05;;;;;;;41.58;19.33;;;;;;;15.41;85.05;101428.09;5009656;28;20518;-67
2021/08/17 07:26:33;;;;;;;42.38;19.58;;;;;;;15.48;84.91;101419.13;5009986;28;20045;-65
2021/08/17 07:28:59;;;;;;;49.38;18.85;;;;;;;15.54;84.61;101413.69;5009769;28;20049;-67
2021/08/17 07:31:25;;;;;;;43.33;19.73;;;;;;;15.79;84.25;101413.00;5013895;28;20516;-66
2021/08/17 07:33:52;;;;;;;43.13;20.27;;;;;;;15.95;83.62;101415.16;5012138;28;20050;-68
2021/08/17 07:36:20;;;;;;;36.10;18.88;;;;;;;16.04;82.54;101420.13;5008540;28;20046;-66
2021/08/17 07:38:46;;;;;;;42.45;18.92;;;;;;;16.13;82.00;101413.72;5006128;28;20050;-65
2021/08/17 07:41:12;;;;;;;44.83;18.25;;;;;;;16.08;81.69;101421.75;5012753;28;20104;-67
2021/08/17 07:43:40;;;;;;;38.20;19.13;;;;;;;16.15;81.28;101409.31;5017495;28;20049;-66
2021/08/17 07:46:07;;;;;;;45.75;21.08;;;;;;;16.16;81.85;101413.66;5013885;28;20046;-68
2021/08/17 07:48:33;;;;;;;41.65;18.80;;;;;;;16.20;81.78;101411.78;5020130;28;20053;-68
2021/08/17 07:51:00;;;;;;;38.22;18.92;;;;;;;16.12;81.77;101420.72;5017056;28;20042;-66
2021/08/17 07:53:26;;;;;;;41.72;20.42;;;;;;;16.07;82.49;101435.78;5017654;28;20104;-66
2021/08/17 07:55:53;;;;;;;43.97;19.27;;;;;;;16.11;81.99;101426.91;5014086;28;20046;-66
2021/08/17 07:58:19;;;;;;;39.22;19.60;;;;;;;16.08;81.78;101418.25;5017525;28;20045;-66
2021/08/17 08:00:47;;;;;;;39.08;17.55;;;;;;;16.07;81.41;101411.31;5015633;28;20531;-67
2021/08/17 08:03:14;;;;;;;40.85;19.17;;;;;;;16.13;80.98;101422.47;5019245;28;20045;-67
2021/08/17 08:05:40;;;;;;;36.63;18.48;;;;;;;16.21;81.29;101429.25;5017768;28;20447;-67
2021/08/17 08:08:06;;;;;;;40.30;19.02;;;;;;;16.08;81.39;101420.88;5012188;28;20158;-66
2021/08/17 08:10:33;;;;;;;44.47;20.50;;;;;;;16.03;81.13;101407.06;5013672;28;20049;-68
2021/08/17 08:12:59;;;;;;;43.70;18.45;;;;;;;16.01;81.47;101413.22;5010794;28;20102;-67
2021/08/17 08:15:26;;;;;;;38.40;19.38;;;;;;;16.04;81.30;101412.25;5014458;28;20053;-66
2021/08/17 08:17:53;;;;;;;42.67;18.92;;;;;;;16.16;81.51;101417.13;5016569;28;20505;-67
2021/08/17 08:20:21;;;;;;;43.05;19.75;;;;;;;16.11;81.62;101416.41;5010977;28;20054;-67
2021/08/17 08:22:49;;;;;;;44.92;20.60;;;;;;;16.06;81.98;101422.72;5021306;28;20582;-67
2021/08/17 08:25:15;;;;;;;38.65;19.55;;;;;;;16.20;81.66;101430.16;5023923;28;20060;-67
2021/08/17 08:27:42;;;;;;;40.00;20.88;;;;;;;16.22;80.94;101426.56;5020694;28;20053;-67
2021/08/17 08:30:10;;;;;;;41.22;19.38;;;;;;;16.26;80.97;101424.69;5020702;28;20057;-66
2021/08/17 08:32:36;;;;;;;35.85;17.98;;;;;;;16.31;80.89;101428.03;5016438;28;20157;-65
2021/08/17 08:35:06;;;;;;;40.67;19.85;;;;;;;16.41;80.46;101431.22;5023295;28;20049;-66
2021/08/17 08:37:32;;;;;;;41.83;21.20;;;;;;;16.59;79.76;101430.59;5019301;28;20046;-66
2021/08/17 08:39:59;;;;;;;38.20;19.17;;;;;;;16.54;79.83;101432.53;5022681;28;20073;-67
2021/08/17 08:42:26;;;;;;;43.88;20.65;;;;;;;16.60;79.63;101434.13;5021571;28;20048;-66
2021/08/17 08:44:54;;;;;;;37.22;17.75;;;;;;;16.63;79.13;101444.50;5013335;28;20061;-66
2021/08/17 08:47:21;;;;;;;43.50;19.13;;;;;;;16.63;79.16;101436.59;5012830;28;20049;-66
2021/08/17 08:49:50;;;;;;;35.20;17.25;;;;;;;16.71;77.69;101445.13;5020301;28;20545;-66
2021/08/17 08:52:18;;;;;;;37.08;17.17;;;;;;;16.76;77.62;101443.19;5018207;28;20038;-66
2021/08/17 08:54:45;;;;;;;39.83;18.80;;;;;;;16.72;77.32;101431.03;5015544;28;20049;-66
2021/08/17 08:57:11;;;;;;;37.20;16.73;;;;;;;16.72;78.12;101420.53;5024692;28;20046;-66
2021/08/17 08:59:39;;;;;;;38.72;18.88;;;;;;;16.71;77.52;101428.47;5020269;28;20104;-67
2021/08/17 09:02:07;;;;;;;38.10;18.02;;;;;;;16.74;77.33;101428.38;5020952;28;20443;-66
2021/08/17 09:04:33;;;;;;;31.50;16.48;;;;;;;16.95;76.11;101424.19;5017482;28;20060;-66
2021/08/17 09:07:00;;;;;;;31.55;16.65;;;;;;;17.05;76.17;101419.47;5024469;28;20510;-67
2021/08/17 09:09:29;;;;;;;34.90;16.85;;;;;;;17.26;75.96;101404.69;5017645;28;20050;-67
2021/08/17 09:11:58;;;;;;;34.70;16.42;;;;;;;17.34;75.22;101397.38;5019684;28;20045;-67
2021/08/17 09:14:26;;;;;;;33.42;16.98;;;;;;;17.48;74.40;101393.38;5022296;28;20112;-67
2021/08/17 09:16:54;;;;;;;34.67;16.83;;;;;;;17.51;73.88;101403.78;5017182;28;20064;-68
2021/08/17 09:19:26;;;;;;;31.27;14.77;;;;;;;17.70;72.62;101404.81;5012688;28;20043;-68
2021/08/17 09:21:54;;;;;;;30.90;15.68;;;;;;;17.55;72.26;101398.34;5019603;28;20065;-68
2021/08/17 09:24:22;;;;;;;30.25;14.32;;;;;;;17.51;71.87;101399.38;5016646;28;20081;-67
2021/08/17 09:26:52;;;;;;;24.05;13.93;;;;;;;17.47;72.37;101410.06;5023212;28;20064;-67
2021/08/17 09:29:25;;;;;;;25.90;14.02;;;;;;;17.62;71.54;101408.63;5022459;28;20164;-66
2021/08/17 09:31:53;;;;;;;30.45;14.15;;;;;;;17.70;72.03;101404.81;5019139;28;20053;-68
2021/08/17 09:34:23;;;;;;;27.55;13.32;;;;;;;17.69;71.45;101404.84;5019815;28;20041;-67
2021/08/17 09:36:50;;;;;;;30.50;14.75;;;;;;;17.68;71.38;101411.88;5016819;28;20103;-67
2021/08/17 09:39:29;;;;;;;29.48;14.38;;;;;;;17.76;70.12;101406.34;5021943;28;20050;-68
2021/08/17 09:42:25;;;;;;;27.65;13.43;;;;;;;17.77;70.06;101407.19;5018220;28;20139;-68
2021/08/17 09:45:10;;;;;;;;;;;;;;;17.81;68.99;101419.31;5015122;28;20050;-67
2021/08/17 09:47:38;;;;;;;32.30;14.47;;;;;;;17.72;70.06;101423.16;5017063;28;19964;-67
2021/08/17 09:50:20;;;;;;;26.10;13.23;;;;;;;17.78;70.11;101408.91;5017777;28;20072;-67
2021/08/17 09:52:47;;;;;;;31.15;13.23;;;;;;;17.77;70.39;101408.03;5016103;28;20073;-67
2021/08/17 09:55:14;;;;;;;32.83;13.27;;;;;;;17.72;70.97;101416.09;5014514;28;20038;-68
2021/08/17 09:57:42;;;;;;;22.30;12.75;;;;;;;17.66;69.20;101412.88;5023084;28;20129;-67
2021/08/17 10:00:14;;;;;;;20.85;11.48;;;;;;;17.59;70.03;101428.03;5014331;28;20233;-67
2021/08/17 10:02:42;;;;;;;23.77;11.68;;;;;;;17.77;69.12;101412.44;5019187;28;20044;-67
2021/08/17 10:05:11;;;;;;;23.23;12.10;;;;;;;17.93;68.34;101424.09;5022546;28;20052;-67
2021/08/17 10:07:39;;;;;;;21.73;11.65;;;;;;;18.07;68.46;101418.31;5016792;28;20061;-67
2021/08/17 10:10:06;;;;;;;22.90;11.10;;;;;;;17.98;67.40;101413.41;5018608;28;20133;-67
2021/08/17 10:12:32;;;;;;;26.50;11.90;;;;;;;17.87;67.68;101422.53;5024097;28;20050;-67
2021/08/17 10:15:00;;;;;;;25.08;11.88;;;;;;;17.70;68.81;101420.59;5023256;28;20501;-68
2021/08/17 10:17:27;;;;;;;23.08;11.98;;;;;;;17.69;69.14;101412.72;5018241;28;20058;-67
2021/08/17 10:19:54;;;;;;;29.23;13.10;;;;;;;17.67;68.73;101409.28;5024793;28;20423;-67
2021/08/17 10:22:20;;;;;;;28.25;12.38;;;;;;;17.61;69.17;101407.78;5021075;28;20099;-67
2021/08/17 10:24:49;;;;;;;19.67;10.85;;;;;;;17.74;68.34;101404.66;5021817;28;20505;-67
2021/08/17 10:27:23;;;;;;;20.42;11.10;;;;;;;17.66;68.19;101404.97;5015840;28;20046;-67
2021/08/17 10:30:02;;;;;;;22.35;11.30;;;;;;;17.56;68.81;101391.31;5016533;28;20065;-66
2021/08/17 10:32:47;;;;;;;19.92;10.45;;;;;;;17.66;68.95;101391.81;5015320;28;20057;-67
2021/08/17 10:35:55;;;;;;;21.45;10.32;;;;;;;17.78;68.56;101382.59;5021488;28;20050;-67
2021/08/17 10:38:45;;;;;;;20.15;10.73;;;;;;;17.71;68.41;101389.84;5020688;28;20521;-67
2021/08/17 10:41:12;;;;;;;21.38;10.10;;;;;;;17.67;69.05;101385.63;5015642;28;20042;-66
2021/08/17 10:44:16;;;;;;;26.17;11.00;;;;;;;17.64;68.75;101394.50;5017643;28;20054;-68
2021/08/17 10:46:56;;;;;;;21.63;10.80;;;;;;;17.61;69.57;101399.91;5004284;28;20574;-68
2021/08/17 10:49:24;;;;;;;20.83;9.73;;;;;;;17.60;69.17;101387.66;5017627;28;20099;-67
2021/08/17 10:51:52;;;;;;;20.08;10.07;;;;;;;17.65;68.80;101398.00;5023751;28;20050;-67
2021/08/17 10:54:19;;;;;;;20.58;9.93;;;;;;;17.83;68.04;101391.16;5021395;28;20396;-67
2021/08/17 10:56:48;;;;;;;16.77;9.88;;;;;;;17.80;68.38;101389.50;5019373;28;20499;-68
2021/08/17 10:59:15;;;;;;;21.15;9.48;;;;;;;17.76;67.77;101390.56;5022709;28;20130;-67
2021/08/17 11:01:43;;;;;;;25.02;11.07;;;;;;;17.75;68.09;101391.47;5014898;28;20106;-68
2021/08/17 11:04:19;;;;;;;20.20;10.45;;;;;;;17.74;67.75;101384.50;5013710;28;20045;-68
2021/08/17 11:06:47;;;;;;;24.00;10.55;;;;;;;17.59;68.91;101380.69;5020677;28;20099;-67
2021/08/17 11:09:16;;;;;;;22.63;10.23;;;;;;;17.52;69.66;101381.81;5011682;28;20053;-68
2021/08/17 11:11:44;;;;;;;16.75;9.57;;;;;;;17.44;69.15;101379.50;5020787;28;20045;-67
2021/08/17 11:14:15;;;;;;;15.77;9.25;;;;;;;17.42;68.55;101370.78;5018067;28;20103;-68